Urb Central Mercedita, Puerto Rico
Current Conditions -  °F | °C
As of 5:30 AM on Thursday 27 Nov 2014 (Local Time) from TJBQ Reporting Station
Broken Clouds Broken Clouds  
Wind Chill: 73°   Ceiling: 7500
Heat Index: 73°   Visibility: 10mi
Dew Point: 72°   Wind: 13mph
Humidity: 94%   Direction: 110°ESE
Pressure: 29.99"   Gusts: NA
Location:  18.1144°N, 66.8568°W
Report Text: TJBQ 270930Z 11011KT 10SM SCT060 BKN075 23/22 A2999 RMK TWR CLOSED UNTIL 1100Z
Loading
Personal Weather Stations






























Interactive Weather Map New forecast layout! Learn more

10-Day Weather Forecast

Advertisements
Track Severe Weather on mobile